Grimsley, Tennessee
Current Conditions -  °F | °C
As of 2:53 PM on Wednesday 26 Nov 2014 (Local Time) from KCSV Reporting Station
Clear Clear  
Wind Chill:   Ceiling: Unl
Heat Index:   Visibility: 10mi
Dew Point: -6°   Wind: 8mph
Humidity: 39%   Direction: 260°W
Pressure: 30.03"   Gusts: NA
Location:  36.27°N, 84.98°W
Report Text: KCSV 262053Z AUTO 26007KT 10SM CLR 07/M06 A3003 RMK AO2 SLP171 T00721061 56006
Loading
Personal Weather Stations






























Interactive Weather Map New forecast layout! Learn more

10-Day Weather Forecast

Advertisements
Track Severe Weather on mobile